• Join FlightAware (Why Join?)
  • Login
  • US Flag 
04:31AM EST


 

Airport Tracker/Info


-or-


 

Live Flight TrackerFlight Track Log ✈ SWA118 ✈ 17-Apr-2013 ✈ KIND - KMDW

Flight Track Log - Related Links

Times and Time Zones

All times are in EDT time to prevent confusion due to time zone crossing. See the SWA118 flight status page for this flight to view local times or setup timezone preferences in your user account.

Time Position Orientation Groundspeed Altitude Reporting Facility
EDT Latitude Longitude Course Direction KTS MPH feet Rate Location/Type
09:34PM 39.7000 -86.3167 237° Southwest 159 183 2,000  Level Indianapolis TRACON
09:35PM 39.6833 -86.3500 237° Southwest 169 194 3,300 2,580 Climbing Indianapolis TRACON
09:36PM 39.6611 -86.4558 246° West 195 224 7,900 2,400 Climbing Indianapolis Center
09:37PM 39.6656 -86.5447 274° West 219 252 9,600 2,820 Climbing Indianapolis Center
09:38PM 39.6736 -86.6450 276° West 242 278 13,800 3,240 Climbing Indianapolis Center
09:39PM 39.6811 -86.7553 275° West 281 323 16,300 2,700 Climbing Indianapolis Center
09:40PM 39.6894 -86.8694 275° West 307 353 19,400 2,700 Climbing Indianapolis Center
09:41PM 39.6969 -86.9872 275° West 322 371 21,900 1,260 Climbing Indianapolis Center
09:42PM 39.7058 -87.1100 275° West 335 386 22,000  Climbing Indianapolis Center
09:43PM 39.7381 -87.2300 289° West 354 407 22,000  Level Indianapolis Center
09:44PM 39.7731 -87.3533 290° West 363 418 22,000  Level Indianapolis Center
09:46PM 39.8092 -87.4767 291° West 364 419 22,000  Level Indianapolis Center
09:47PM 39.8442 -87.5992 290° West 363 418 22,000  Level Indianapolis Center
09:48PM 39.8872 -87.7481 291° West 365 420 22,000  Level Indianapolis Center
09:49PM 39.9214 -87.8714 290° West 363 418 22,000  Level Indianapolis Center
09:49PM 39.9308 -87.9086 288° West 363 418 22,000  Level Chicago Center
09:50PM 39.9664 -88.0328 291° West 366 421 22,000  Level Chicago Center
09:51PM 40.0006 -88.1578 290° West 367 422 22,000  Level Chicago Center
09:52PM 40.0444 -88.2769 296° West 367 422 22,000  Level Chicago Center
09:53PM 40.1425 -88.3383 334° Northwest 394 453 22,000  Level Chicago Center
09:54PM 40.2436 -88.3972 336° Northwest 388 447 22,000  Level Chicago Center
09:55PM 40.3419 -88.4533 336° Northwest 387 445 22,000 -120 Level Chicago Center
09:56PM 40.4356 -88.5083 336° Northwest 383 441 21,800 -660 Descending Chicago Center
09:57PM 40.5344 -88.5653 336° Northwest 377 434 20,700 -1,080 Descending Chicago Center
09:58PM 40.6281 -88.6200 336° Northwest 371 427 19,700 -1,080 Descending Chicago Center
09:59PM 40.7403 -88.6861 336° Northwest 370 426 18,500 -1,380 Descending Chicago Center
10:00PM 40.8356 -88.7247 343° North 373 429 16,900 -840 Descending Chicago Center
10:01PM 40.9411 -88.7044 North 387 445 16,900 -1,200 Level Chicago Center
10:02PM 41.0369 -88.6350 29° Northeast 396 456 14,500 -2,460 Descending Chicago Center
10:03PM 41.1375 -88.5722 25° Northeast 399 459 11,900 -2,220 Descending Chicago Center
10:04PM 41.2347 -88.5119 25° Northeast 388 447 10,000 -1,860 Descending Chicago Center
10:05PM 41.3219 -88.4578 25° Northeast 350 403 8,200 -1,740 Descending Chicago Center
10:06PM 41.4053 -88.4006 27° Northeast 340 391 6,500 -1,200 Descending Chicago Center
10:07PM 41.4358 -88.2997 68° East 299 344 5,800 -1,080 Descending Chicago Center
10:08PM 41.4789 -88.2142 56° Northeast 283 326 4,400 -900 Descending Chicago Center
10:09PM 41.5256 -88.1381 51° Northeast 267 307 4,000 -240 Descending Chicago Center
10:10PM 41.5700 -88.0614 52° Northeast 260 299 4,000  Level Chicago Center
10:11PM 41.6158 -87.9828 52° Northeast 263 303 4,000  Level Chicago Center
10:12PM 41.6556 -87.9153 52° Northeast 244 281 4,000 -600 Level Chicago Center
10:13PM 41.7000 -87.8667 39° Northeast 192 221 3,000 -1,080 Descending Chicago TRACON
10:14PM 41.7333 -87.8167 48° Northeast 153 176 2,000 -900 Descending Chicago TRACON
10:15PM 41.7500 -87.7833 56° Northeast 148 170 1,200 -900 Descending Chicago TRACON